Gallup Municipal Airport


Codes: KGUP/GUP
Name: Gallup Municipal Airport
City: Gallup
Country: United States
Elevation: 6472 ft.
Wikipedia:

Photos at Gallup Municipal Airport


   Photos courtesy of SpottingLog. You can add your own sightings and photos by signing up for a free trial today.



No photos found.

Weather at Gallup Municipal Airport


Time (UTC)DescriptionTempratureWindCloud coverageVisibilityPressureHumidity
26-Jun-2024 00:00Light Rain31°C7 mph, NW38%10000m1018hPa23%
26-Jun-2024 03:00Light Rain25°C20 mph, SW80%10000m1018hPa48%
26-Jun-2024 06:00Overcast Clouds23°C9 mph, NW100%10000m1015hPa49%
26-Jun-2024 09:00Overcast Clouds22°C4 mph, W100%10000m1014hPa57%
26-Jun-2024 12:00Overcast Clouds22°C7 mph, SW100%10000m1015hPa57%
26-Jun-2024 15:00Overcast Clouds23°C7 mph, S97%10000m1015hPa52%
26-Jun-2024 18:00Overcast Clouds28°C4 mph, SW92%10000m1013hPa34%
26-Jun-2024 21:00Broken Clouds30°C13 mph, W66%10000m1010hPa30%
27-Jun-2024 00:00Light Rain27°C4 mph, E62%10000m1009hPa41%
27-Jun-2024 03:00Light Rain22°C4 mph, E100%10000m1012hPa59%
27-Jun-2024 06:00Light Rain20°C7 mph, S100%10000m1014hPa71%
27-Jun-2024 09:00Moderate Rain18°C7 mph, SW99%10000m1014hPa79%
27-Jun-2024 12:00Light Rain19°C7 mph, W99%10000m1013hPa75%
27-Jun-2024 15:00Light Rain20°C4 mph, SW100%10000m1013hPa65%
27-Jun-2024 18:00Light Rain25°C4 mph, W99%10000m1010hPa47%
27-Jun-2024 21:00Overcast Clouds27°C16 mph, W89%10000m1007hPa38%
28-Jun-2024 00:00Light Rain26°C18 mph, W92%10000m1006hPa42%
28-Jun-2024 03:00Scattered Clouds23°C7 mph, SW39%10000m1007hPa51%
28-Jun-2024 06:00Light Rain20°C4 mph, SE43%10000m1010hPa66%
28-Jun-2024 09:00Light Rain19°C4 mph, SW1%10000m1010hPa67%
28-Jun-2024 12:00Light Rain18°C7 mph, S0%10000m1011hPa71%
28-Jun-2024 15:00Clear Sky22°C9 mph, W1%10000m1011hPa53%
28-Jun-2024 18:00Clear Sky27°C16 mph, W5%10000m1009hPa36%
28-Jun-2024 21:00Broken Clouds29°C16 mph, W64%10000m1008hPa25%
29-Jun-2024 00:00Scattered Clouds30°C11 mph, SW44%10000m1006hPa21%
29-Jun-2024 03:00Scattered Clouds26°C9 mph, W45%10000m1008hPa24%
29-Jun-2024 06:00Few Clouds24°C4 mph, NW23%10000m1010hPa31%
29-Jun-2024 09:00Broken Clouds23°C7 mph, SW71%10000m1012hPa40%
29-Jun-2024 12:00Scattered Clouds20°C7 mph, SW37%10000m1014hPa47%
29-Jun-2024 15:00Broken Clouds24°C4 mph, W69%10000m1014hPa35%
29-Jun-2024 18:00Broken Clouds28°C2 mph, S84%10000m1013hPa26%
29-Jun-2024 21:00Broken Clouds32°C11 mph, SW62%10000m1011hPa21%
30-Jun-2024 00:00Broken Clouds28°C29 mph, S64%10000m1011hPa33%
30-Jun-2024 03:00Overcast Clouds22°C7 mph, S99%10000m1015hPa53%
30-Jun-2024 06:00Overcast Clouds22°C7 mph, S96%10000m1016hPa52%
30-Jun-2024 09:00Overcast Clouds21°C16 mph, S100%10000m1017hPa59%
30-Jun-2024 12:00Overcast Clouds21°C16 mph, S100%10000m1017hPa57%
30-Jun-2024 15:00Overcast Clouds22°C9 mph, S99%10000m1017hPa53%
30-Jun-2024 18:00Overcast Clouds27°C11 mph, S90%10000m1015hPa36%
30-Jun-2024 21:00Overcast Clouds28°C16 mph, SW99%10000m1012hPa31%